Essex, MA (01929)

6:42 PM EDT on August 28, 2015 (GMT -0400)
Village at West Gloucester | | Change Station
CLOSE
Current Station
Personal Weather Station
Location: Gloucester, MA
Elevation: 161 ft
Nearby Weather Stations

Elev 161 ft 42.64 °N, 70.71 °W | Updated 9 minutes ago

Partly Cloudy
Partly Cloudy
70.2 °F
Feels Like 73 °F
N
2.0
Wind Variable Wind from SSE
Gusts 4.0 mph

Today
High -- | Low -- °F
--% Chance of Precip.
Yesterday
High -- | Low -- °F
Precip. -- in
6:03 AM 7:24 PM
Waxing Gibbous, 99% visible
Pressure 30.09 in
Visibility 10.0 miles
Clouds Clear
Heat Index 73 °F
Dew Point 62 °F
Humidity 74%
Rainfall 0.00 in
Snow Depth Not available.
UV 1 out of 12
Pollen 9.50 out of 12
Air Quality Not available.
Flu Activity Not available.
METAR KBVY 282153Z 13007KT 10SM CLR 22/13 A3010 RMK AO2 SLP189 T02170133
Pressure 30.09 in
Visibility 10.0 miles
Clouds Clear
Heat Index 73 °F
Dew Point 62 °F
Humidity 74%
Rainfall 0.00 in
Snow Depth Not available.
UV 1 out of 12
Pollen 9.50 out of 12
Air Quality Not available.
Flu Activity Not available.
METAR KBVY 282153Z 13007KT 10SM CLR 22/13 A3010 RMK AO2 SLP189 T02170133

10-Day Weather Forecast

×

Almanac

Astronomy

Aug. 28, 2015 Rise Set
Actual Time
Civil Twilight
Nautical Twilight
Astronomical Twilight
Moon
Length of Visible Light
Length of Day
Tomorrow will be .
, % of the Moon is Illuminated

Today's Extremes

State Highs State Lows

Community

WunderPhotos

Upload Photos

1,850,516 photos uploaded!

WunderBlogs® & News

Nearby

Air Quality

  Air Quality AQ Index Pollutant
Not available.

Snow Depth

Station Depth Elevation

Earthquake Activity

City Distance Mag. Time & Date
Minimum magnitude displayed is 2.5.

Coastal Water Temperatures

Place Temperature

Stations

Nearby Weather Stations

Station Location Temp. Windchill Dew Point Humidity Wind Precip. Elev Updated Type